Wallkill, New York
Current Conditions -  °F | °C
As of 6:45 PM on Wednesday 22 Oct 2014 (Local Time) from KSWF Reporting Station
Haze Haze  
Wind Chill: 50°   Ceiling: 1200
Heat Index: 50°   Visibility: 4mi
Dew Point: 48°   Wind: 18mph
Humidity: 94%   Direction: 10°N
Pressure: 29.88"   Gusts: 25mph
Location:  41.61°N, 74.16°W
Report Text: KSWF 222245Z 01016G22KT 4SM BR OVC012 10/09 A2988
Loading
Personal Weather Stations






























Interactive Weather Map New forecast layout! Learn more

10-Day Weather Forecast

Advertisements
Track Severe Weather on mobile